sensor_id;sensor_type;location;lat;lon;timestamp;P1;durP1;ratioP1;P2;durP2;ratioP2
70981;SDS011;58640;51.320;9.456;2022-07-12T00:01:34;3.10;;;2.45;;
70981;SDS011;58640;51.320;9.456;2022-07-12T00:03:59;5.88;;;2.65;;
70981;SDS011;58640;51.320;9.456;2022-07-12T00:06:25;2.30;;;2.10;;
70981;SDS011;58640;51.320;9.456;2022-07-12T00:08:50;2.60;;;2.40;;
70981;SDS011;58640;51.320;9.456;2022-07-12T00:11:15;2.70;;;2.50;;
70981;SDS011;58640;51.320;9.456;2022-07-12T00:13:41;4.93;;;2.72;;
70981;SDS011;58640;51.320;9.456;2022-07-12T00:16:06;2.97;;;2.28;;
70981;SDS011;58640;51.320;9.456;2022-07-12T00:18:32;2.45;;;2.25;;
70981;SDS011;58640;51.320;9.456;2022-07-12T00:20:58;3.63;;;2.47;;
70981;SDS011;58640;51.320;9.456;2022-07-12T00:23:23;3.42;;;2.60;;
70981;SDS011;58640;51.320;9.456;2022-07-12T00:25:48;3.30;;;2.50;;
70981;SDS011;58640;51.320;9.456;2022-07-12T00:28:14;4.65;;;2.20;;
70981;SDS011;58640;51.320;9.456;2022-07-12T00:30:40;2.90;;;2.60;;
70981;SDS011;58640;51.320;9.456;2022-07-12T00:33:05;2.40;;;2.20;;
70981;SDS011;58640;51.320;9.456;2022-07-12T00:35:31;2.70;;;2.45;;
70981;SDS011;58640;51.320;9.456;2022-07-12T00:37:56;2.50;;;2.30;;
70981;SDS011;58640;51.320;9.456;2022-07-12T00:40:21;4.35;;;3.03;;
70981;SDS011;58640;51.320;9.456;2022-07-12T00:42:47;3.58;;;2.90;;
70981;SDS011;58640;51.320;9.456;2022-07-12T00:45:12;2.78;;;2.58;;
70981;SDS011;58640;51.320;9.456;2022-07-12T00:47:39;2.58;;;2.38;;
70981;SDS011;58640;51.320;9.456;2022-07-12T00:50:10;2.80;;;2.60;;
70981;SDS011;58640;51.320;9.456;2022-07-12T00:52:36;3.13;;;2.45;;
70981;SDS011;58640;51.320;9.456;2022-07-12T00:55:03;3.65;;;2.92;;
70981;SDS011;58640;51.320;9.456;2022-07-12T00:57:29;4.07;;;2.80;;
70981;SDS011;58640;51.320;9.456;2022-07-12T00:59:57;2.65;;;2.45;;
70981;SDS011;58640;51.320;9.456;2022-07-12T01:02:22;4.80;;;2.90;;
70981;SDS011;58640;51.320;9.456;2022-07-12T01:04:47;2.80;;;2.60;;
70981;SDS011;58640;51.320;9.456;2022-07-12T01:07:15;5.72;;;2.40;;
70981;SDS011;58640;51.320;9.456;2022-07-12T01:09:41;2.92;;;2.63;;
70981;SDS011;58640;51.320;9.456;2022-07-12T01:12:06;2.95;;;2.75;;
70981;SDS011;58640;51.320;9.456;2022-07-12T01:14:33;3.95;;;2.88;;
70981;SDS011;58640;51.320;9.456;2022-07-12T01:17:00;2.85;;;2.65;;
70981;SDS011;58640;51.320;9.456;2022-07-12T01:19:25;3.65;;;2.70;;
70981;SDS011;58640;51.320;9.456;2022-07-12T01:21:51;3.30;;;2.45;;
70981;SDS011;58640;51.320;9.456;2022-07-12T01:24:18;2.25;;;2.15;;
70981;SDS011;58640;51.320;9.456;2022-07-12T01:26:44;2.95;;;2.30;;
70981;SDS011;58640;51.320;9.456;2022-07-12T01:29:10;3.42;;;2.70;;
70981;SDS011;58640;51.320;9.456;2022-07-12T01:31:36;2.88;;;2.55;;
70981;SDS011;58640;51.320;9.456;2022-07-12T01:34:02;2.50;;;2.30;;
70981;SDS011;58640;51.320;9.456;2022-07-12T01:36:28;2.70;;;2.35;;
70981;SDS011;58640;51.320;9.456;2022-07-12T01:38:54;3.00;;;2.67;;
70981;SDS011;58640;51.320;9.456;2022-07-12T01:41:20;2.10;;;2.00;;
70981;SDS011;58640;51.320;9.456;2022-07-12T01:43:46;3.03;;;2.75;;
70981;SDS011;58640;51.320;9.456;2022-07-12T01:46:12;2.65;;;2.45;;
70981;SDS011;58640;51.320;9.456;2022-07-12T01:48:37;2.42;;;2.22;;
70981;SDS011;58640;51.320;9.456;2022-07-12T01:51:03;4.40;;;2.67;;
70981;SDS011;58640;51.320;9.456;2022-07-12T01:53:28;6.07;;;2.83;;
70981;SDS011;58640;51.320;9.456;2022-07-12T01:55:54;3.13;;;2.63;;
70981;SDS011;58640;51.320;9.456;2022-07-12T01:58:19;2.92;;;2.60;;
70981;SDS011;58640;51.320;9.456;2022-07-12T02:00:44;3.30;;;2.85;;
70981;SDS011;58640;51.320;9.456;2022-07-12T02:03:16;2.63;;;2.42;;
70981;SDS011;58640;51.320;9.456;2022-07-12T02:05:42;3.10;;;2.67;;
70981;SDS011;58640;51.320;9.456;2022-07-12T02:08:07;3.25;;;2.90;;
70981;SDS011;58640;51.320;9.456;2022-07-12T02:10:33;3.78;;;3.00;;
70981;SDS011;58640;51.320;9.456;2022-07-12T02:13:02;4.13;;;2.97;;
70981;SDS011;58640;51.320;9.456;2022-07-12T02:15:28;3.55;;;2.90;;
70981;SDS011;58640;51.320;9.456;2022-07-12T02:17:53;3.10;;;2.88;;
70981;SDS011;58640;51.320;9.456;2022-07-12T02:20:18;3.53;;;3.22;;
70981;SDS011;58640;51.320;9.456;2022-07-12T02:22:44;3.05;;;2.83;;
70981;SDS011;58640;51.320;9.456;2022-07-12T02:25:09;4.20;;;3.38;;
70981;SDS011;58640;51.320;9.456;2022-07-12T02:27:34;3.60;;;3.30;;
70981;SDS011;58640;51.320;9.456;2022-07-12T02:30:00;4.38;;;3.28;;
70981;SDS011;58640;51.320;9.456;2022-07-12T02:32:26;5.78;;;2.92;;
70981;SDS011;58640;51.320;9.456;2022-07-12T02:34:51;3.47;;;3.17;;
70981;SDS011;58640;51.320;9.456;2022-07-12T02:37:17;4.13;;;3.72;;
70981;SDS011;58640;51.320;9.456;2022-07-12T02:39:42;3.42;;;3.13;;
70981;SDS011;58640;51.320;9.456;2022-07-12T02:42:08;3.50;;;3.20;;
70981;SDS011;58640;51.320;9.456;2022-07-12T02:44:33;6.25;;;3.45;;
70981;SDS011;58640;51.320;9.456;2022-07-12T02:46:59;4.07;;;3.03;;
70981;SDS011;58640;51.320;9.456;2022-07-12T02:49:25;4.57;;;2.83;;
70981;SDS011;58640;51.320;9.456;2022-07-12T02:51:50;3.38;;;3.08;;
70981;SDS011;58640;51.320;9.456;2022-07-12T02:54:16;2.85;;;2.65;;
70981;SDS011;58640;51.320;9.456;2022-07-12T02:56:41;4.75;;;2.95;;
70981;SDS011;58640;51.320;9.456;2022-07-12T02:59:06;4.00;;;3.30;;
70981;SDS011;58640;51.320;9.456;2022-07-12T03:01:32;3.47;;;2.78;;
70981;SDS011;58640;51.320;9.456;2022-07-12T03:03:57;3.40;;;3.10;;
70981;SDS011;58640;51.320;9.456;2022-07-12T03:06:23;4.68;;;3.08;;
70981;SDS011;58640;51.320;9.456;2022-07-12T03:08:48;7.03;;;4.03;;
70981;SDS011;58640;51.320;9.456;2022-07-12T03:11:13;4.57;;;2.78;;
70981;SDS011;58640;51.320;9.456;2022-07-12T03:13:39;6.43;;;3.20;;
70981;SDS011;58640;51.320;9.456;2022-07-12T03:16:04;3.15;;;2.80;;
70981;SDS011;58640;51.320;9.456;2022-07-12T03:18:30;4.72;;;3.15;;
70981;SDS011;58640;51.320;9.456;2022-07-12T03:20:56;5.07;;;3.33;;
70981;SDS011;58640;51.320;9.456;2022-07-12T03:23:21;5.20;;;3.15;;
70981;SDS011;58640;51.320;9.456;2022-07-12T03:25:46;3.60;;;3.00;;
70981;SDS011;58640;51.320;9.456;2022-07-12T03:28:12;5.03;;;3.20;;
70981;SDS011;58640;51.320;9.456;2022-07-12T03:30:37;4.00;;;3.08;;
70981;SDS011;58640;51.320;9.456;2022-07-12T03:33:03;3.72;;;3.20;;
70981;SDS011;58640;51.320;9.456;2022-07-12T03:35:28;3.63;;;2.97;;
70981;SDS011;58640;51.320;9.456;2022-07-12T03:37:54;2.58;;;2.38;;
70981;SDS011;58640;51.320;9.456;2022-07-12T03:40:19;3.63;;;3.08;;
70981;SDS011;58640;51.320;9.456;2022-07-12T03:42:46;3.65;;;2.95;;
70981;SDS011;58640;51.320;9.456;2022-07-12T03:45:12;5.07;;;3.20;;
70981;SDS011;58640;51.320;9.456;2022-07-12T03:47:38;5.43;;;2.60;;
70981;SDS011;58640;51.320;9.456;2022-07-12T03:50:05;3.42;;;3.00;;
70981;SDS011;58640;51.320;9.456;2022-07-12T03:52:32;4.15;;;3.85;;
70981;SDS011;58640;51.320;9.456;2022-07-12T03:54:58;3.30;;;2.60;;
70981;SDS011;58640;51.320;9.456;2022-07-12T03:57:23;4.28;;;2.92;;
70981;SDS011;58640;51.320;9.456;2022-07-12T03:59:51;2.90;;;2.70;;
70981;SDS011;58640;51.320;9.456;2022-07-12T04:02:17;3.17;;;2.88;;
70981;SDS011;58640;51.320;9.456;2022-07-12T04:04:42;5.18;;;3.22;;
70981;SDS011;58640;51.320;9.456;2022-07-12T04:07:08;4.15;;;3.33;;
70981;SDS011;58640;51.320;9.456;2022-07-12T04:09:33;5.28;;;3.00;;
70981;SDS011;58640;51.320;9.456;2022-07-12T04:11:59;5.20;;;3.60;;
70981;SDS011;58640;51.320;9.456;2022-07-12T04:14:24;3.15;;;2.85;;
70981;SDS011;58640;51.320;9.456;2022-07-12T04:16:50;3.17;;;2.88;;
70981;SDS011;58640;51.320;9.456;2022-07-12T04:19:15;4.20;;;3.80;;
70981;SDS011;58640;51.320;9.456;2022-07-12T04:21:40;6.22;;;3.25;;
70981;SDS011;58640;51.320;9.456;2022-07-12T04:24:06;5.03;;;3.72;;
70981;SDS011;58640;51.320;9.456;2022-07-12T04:26:31;4.75;;;3.70;;
70981;SDS011;58640;51.320;9.456;2022-07-12T04:28:57;3.25;;;2.97;;
70981;SDS011;58640;51.320;9.456;2022-07-12T04:31:23;5.07;;;3.28;;
70981;SDS011;58640;51.320;9.456;2022-07-12T04:33:49;6.03;;;4.03;;
70981;SDS011;58640;51.320;9.456;2022-07-12T04:36:15;6.35;;;3.40;;
70981;SDS011;58640;51.320;9.456;2022-07-12T04:38:40;5.13;;;3.97;;
70981;SDS011;58640;51.320;9.456;2022-07-12T04:41:06;4.07;;;3.75;;
70981;SDS011;58640;51.320;9.456;2022-07-12T04:43:31;4.93;;;3.90;;
70981;SDS011;58640;51.320;9.456;2022-07-12T04:46:04;3.90;;;3.60;;
70981;SDS011;58640;51.320;9.456;2022-07-12T04:48:31;6.00;;;3.72;;
70981;SDS011;58640;51.320;9.456;2022-07-12T04:50:56;3.78;;;3.47;;
70981;SDS011;58640;51.320;9.456;2022-07-12T04:53:22;3.60;;;3.28;;
70981;SDS011;58640;51.320;9.456;2022-07-12T04:55:47;4.15;;;3.47;;
70981;SDS011;58640;51.320;9.456;2022-07-12T04:58:12;7.55;;;3.90;;
70981;SDS011;58640;51.320;9.456;2022-07-12T05:00:38;4.40;;;4.00;;
70981;SDS011;58640;51.320;9.456;2022-07-12T05:03:03;6.10;;;3.40;;
70981;SDS011;58640;51.320;9.456;2022-07-12T05:05:28;3.10;;;2.88;;
70981;SDS011;58640;51.320;9.456;2022-07-12T05:07:54;5.95;;;3.95;;
70981;SDS011;58640;51.320;9.456;2022-07-12T05:10:19;3.75;;;3.40;;
70981;SDS011;58640;51.320;9.456;2022-07-12T05:12:44;6.68;;;4.55;;
70981;SDS011;58640;51.320;9.456;2022-07-12T05:15:10;6.43;;;4.47;;
70981;SDS011;58640;51.320;9.456;2022-07-12T05:17:35;6.22;;;4.15;;
70981;SDS011;58640;51.320;9.456;2022-07-12T05:20:01;9.23;;;4.75;;
70981;SDS011;58640;51.320;9.456;2022-07-12T05:22:26;7.35;;;4.70;;
70981;SDS011;58640;51.320;9.456;2022-07-12T05:24:51;6.65;;;4.03;;
70981;SDS011;58640;51.320;9.456;2022-07-12T05:27:17;9.00;;;5.28;;
70981;SDS011;58640;51.320;9.456;2022-07-12T05:29:42;8.77;;;4.90;;
70981;SDS011;58640;51.320;9.456;2022-07-12T05:32:07;7.80;;;5.35;;
70981;SDS011;58640;51.320;9.456;2022-07-12T05:34:33;8.32;;;5.72;;
70981;SDS011;58640;51.320;9.456;2022-07-12T05:36:58;6.85;;;5.70;;
70981;SDS011;58640;51.320;9.456;2022-07-12T05:39:24;9.75;;;6.22;;
70981;SDS011;58640;51.320;9.456;2022-07-12T05:41:49;12.85;;;6.20;;
70981;SDS011;58640;51.320;9.456;2022-07-12T05:44:15;11.55;;;6.25;;
70981;SDS011;58640;51.320;9.456;2022-07-12T05:46:44;10.02;;;6.30;;
70981;SDS011;58640;51.320;9.456;2022-07-12T05:49:12;12.93;;;6.28;;
70981;SDS011;58640;51.320;9.456;2022-07-12T05:51:37;10.05;;;6.47;;
70981;SDS011;58640;51.320;9.456;2022-07-12T05:54:21;16.02;;;6.32;;
70981;SDS011;58640;51.320;9.456;2022-07-12T05:56:46;17.95;;;6.35;;
70981;SDS011;58640;51.320;9.456;2022-07-12T05:59:12;11.52;;;6.13;;
70981;SDS011;58640;51.320;9.456;2022-07-12T06:01:37;7.70;;;6.35;;
70981;SDS011;58640;51.320;9.456;2022-07-12T06:04:02;9.93;;;5.28;;
70981;SDS011;58640;51.320;9.456;2022-07-12T06:06:28;9.30;;;5.55;;
70981;SDS011;58640;51.320;9.456;2022-07-12T06:08:53;9.73;;;6.30;;
70981;SDS011;58640;51.320;9.456;2022-07-12T06:11:18;8.68;;;6.10;;
70981;SDS011;58640;51.320;9.456;2022-07-12T06:13:44;11.07;;;7.57;;
70981;SDS011;58640;51.320;9.456;2022-07-12T06:16:09;13.50;;;6.43;;
70981;SDS011;58640;51.320;9.456;2022-07-12T06:18:36;14.10;;;5.95;;
70981;SDS011;58640;51.320;9.456;2022-07-12T06:21:02;11.50;;;6.47;;
70981;SDS011;58640;51.320;9.456;2022-07-12T06:23:27;9.95;;;6.38;;
70981;SDS011;58640;51.320;9.456;2022-07-12T06:25:53;11.40;;;6.10;;
70981;SDS011;58640;51.320;9.456;2022-07-12T06:28:18;10.27;;;6.53;;
70981;SDS011;58640;51.320;9.456;2022-07-12T06:30:44;7.95;;;6.65;;
70981;SDS011;58640;51.320;9.456;2022-07-12T06:33:09;9.73;;;6.35;;
70981;SDS011;58640;51.320;9.456;2022-07-12T06:35:35;6.95;;;5.88;;
70981;SDS011;58640;51.320;9.456;2022-07-12T06:38:00;14.23;;;7.03;;
70981;SDS011;58640;51.320;9.456;2022-07-12T06:40:26;8.82;;;5.80;;
70981;SDS011;58640;51.320;9.456;2022-07-12T06:42:51;9.23;;;5.75;;
70981;SDS011;58640;51.320;9.456;2022-07-12T06:45:16;7.28;;;5.93;;
70981;SDS011;58640;51.320;9.456;2022-07-12T06:47:42;8.02;;;5.63;;
70981;SDS011;58640;51.320;9.456;2022-07-12T06:50:08;10.00;;;5.57;;
70981;SDS011;58640;51.320;9.456;2022-07-12T06:52:34;11.35;;;6.60;;
70981;SDS011;58640;51.320;9.456;2022-07-12T06:55:00;9.52;;;5.53;;
70981;SDS011;58640;51.320;9.456;2022-07-12T06:57:25;9.18;;;5.85;;
70981;SDS011;58640;51.320;9.456;2022-07-12T06:59:55;5.75;;;4.85;;
70981;SDS011;58640;51.320;9.456;2022-07-12T07:02:21;12.73;;;6.85;;
70981;SDS011;58640;51.320;9.456;2022-07-12T07:04:46;8.20;;;5.50;;
70981;SDS011;58640;51.320;9.456;2022-07-12T07:07:12;7.07;;;6.30;;
70981;SDS011;58640;51.320;9.456;2022-07-12T07:09:37;5.80;;;5.13;;
70981;SDS011;58640;51.320;9.456;2022-07-12T07:12:03;6.55;;;5.32;;
70981;SDS011;58640;51.320;9.456;2022-07-12T07:14:28;6.13;;;5.53;;
70981;SDS011;58640;51.320;9.456;2022-07-12T07:16:54;10.68;;;4.88;;
70981;SDS011;58640;51.320;9.456;2022-07-12T07:19:19;7.03;;;4.57;;
70981;SDS011;58640;51.320;9.456;2022-07-12T07:21:47;8.75;;;4.18;;
70981;SDS011;58640;51.320;9.456;2022-07-12T07:24:13;4.68;;;4.18;;
70981;SDS011;58640;51.320;9.456;2022-07-12T07:26:38;5.18;;;3.90;;
70981;SDS011;58640;51.320;9.456;2022-07-12T07:29:04;6.60;;;3.33;;
70981;SDS011;58640;51.320;9.456;2022-07-12T07:31:47;3.10;;;2.80;;
70981;SDS011;58640;51.320;9.456;2022-07-12T07:34:13;4.88;;;2.40;;
70981;SDS011;58640;51.320;9.456;2022-07-12T07:36:38;4.22;;;2.30;;
70981;SDS011;58640;51.320;9.456;2022-07-12T07:39:04;4.65;;;2.78;;
70981;SDS011;58640;51.320;9.456;2022-07-12T07:41:29;5.22;;;2.05;;
70981;SDS011;58640;51.320;9.456;2022-07-12T07:43:55;3.92;;;1.27;;
70981;SDS011;58640;51.320;9.456;2022-07-12T07:46:20;1.30;;;1.20;;
70981;SDS011;58640;51.320;9.456;2022-07-12T07:48:45;3.20;;;1.40;;
70981;SDS011;58640;51.320;9.456;2022-07-12T07:51:11;1.67;;;1.58;;
70981;SDS011;58640;51.320;9.456;2022-07-12T07:53:36;4.43;;;1.73;;
70981;SDS011;58640;51.320;9.456;2022-07-12T07:56:02;1.55;;;1.20;;
70981;SDS011;58640;51.320;9.456;2022-07-12T07:58:27;4.03;;;1.08;;
70981;SDS011;58640;51.320;9.456;2022-07-12T08:00:53;1.65;;;0.90;;
70981;SDS011;58640;51.320;9.456;2022-07-12T08:03:19;0.93;;;0.93;;
70981;SDS011;58640;51.320;9.456;2022-07-12T08:05:45;1.20;;;0.90;;
70981;SDS011;58640;51.320;9.456;2022-07-12T08:08:11;0.70;;;0.70;;
70981;SDS011;58640;51.320;9.456;2022-07-12T08:10:36;1.65;;;0.80;;
70981;SDS011;58640;51.320;9.456;2022-07-12T08:13:02;0.85;;;0.70;;
70981;SDS011;58640;51.320;9.456;2022-07-12T08:15:27;5.53;;;0.90;;
70981;SDS011;58640;51.320;9.456;2022-07-12T08:17:53;3.38;;;0.90;;
70981;SDS011;58640;51.320;9.456;2022-07-12T08:20:18;3.60;;;1.20;;
70981;SDS011;58640;51.320;9.456;2022-07-12T08:22:44;0.70;;;0.70;;
70981;SDS011;58640;51.320;9.456;2022-07-12T08:25:11;0.68;;;0.68;;
70981;SDS011;58640;51.320;9.456;2022-07-12T08:27:39;1.63;;;0.70;;
70981;SDS011;58640;51.320;9.456;2022-07-12T08:30:05;0.60;;;0.60;;
70981;SDS011;58640;51.320;9.456;2022-07-12T08:32:31;1.30;;;0.85;;
70981;SDS011;58640;51.320;9.456;2022-07-12T08:34:56;0.95;;;0.60;;
70981;SDS011;58640;51.320;9.456;2022-07-12T08:37:22;3.83;;;1.10;;
70981;SDS011;58640;51.320;9.456;2022-07-12T08:39:47;0.47;;;0.47;;
70981;SDS011;58640;51.320;9.456;2022-07-12T08:42:16;0.60;;;0.50;;
70981;SDS011;58640;51.320;9.456;2022-07-12T08:44:43;3.10;;;0.80;;
70981;SDS011;58640;51.320;9.456;2022-07-12T08:47:10;0.82;;;0.40;;
70981;SDS011;58640;51.320;9.456;2022-07-12T08:49:36;0.77;;;0.30;;
70981;SDS011;58640;51.320;9.456;2022-07-12T08:52:48;0.35;;;0.35;;
70981;SDS011;58640;51.320;9.456;2022-07-12T08:54:51;0.95;;;0.30;;
70981;SDS011;58640;51.320;9.456;2022-07-12T08:57:29;0.88;;;0.40;;
70981;SDS011;58640;51.320;9.456;2022-07-12T08:59:59;0.82;;;0.47;;
70981;SDS011;58640;51.320;9.456;2022-07-12T09:02:25;0.95;;;0.52;;
70981;SDS011;58640;51.320;9.456;2022-07-12T09:05:07;0.73;;;0.30;;
70981;SDS011;58640;51.320;9.456;2022-07-12T09:07:36;1.17;;;0.50;;
70981;SDS011;58640;51.320;9.456;2022-07-12T09:10:08;0.40;;;0.40;;
70981;SDS011;58640;51.320;9.456;2022-07-12T09:12:34;0.52;;;0.40;;
70981;SDS011;58640;51.320;9.456;2022-07-12T09:15:14;2.28;;;0.40;;
70981;SDS011;58640;51.320;9.456;2022-07-12T09:17:45;2.33;;;0.50;;
70981;SDS011;58640;51.320;9.456;2022-07-12T09:20:41;4.68;;;0.50;;
70981;SDS011;58640;51.320;9.456;2022-07-12T09:23:11;3.33;;;0.50;;
70981;SDS011;58640;51.320;9.456;2022-07-12T09:25:37;0.43;;;0.40;;
70981;SDS011;58640;51.320;9.456;2022-07-12T09:28:04;0.30;;;0.30;;
70981;SDS011;58640;51.320;9.456;2022-07-12T09:30:32;0.30;;;0.30;;
70981;SDS011;58640;51.320;9.456;2022-07-12T09:33:02;2.38;;;0.40;;
70981;SDS011;58640;51.320;9.456;2022-07-12T09:38:48;0.28;;;0.28;;
70981;SDS011;58640;51.320;9.456;2022-07-12T09:41:18;2.70;;;0.35;;
70981;SDS011;58640;51.320;9.456;2022-07-12T09:43:45;0.38;;;0.20;;
70981;SDS011;58640;51.320;9.456;2022-07-12T09:46:10;0.30;;;0.30;;
70981;SDS011;58640;51.320;9.456;2022-07-12T09:48:39;0.30;;;0.30;;
70981;SDS011;58640;51.320;9.456;2022-07-12T09:51:05;0.73;;;0.63;;
70981;SDS011;58640;51.320;9.456;2022-07-12T09:53:43;0.30;;;0.30;;
70981;SDS011;58640;51.320;9.456;2022-07-12T09:56:13;1.20;;;0.20;;
70981;SDS011;58640;51.320;9.456;2022-07-12T09:58:43;0.40;;;0.40;;
70981;SDS011;58640;51.320;9.456;2022-07-12T10:01:16;1.02;;;0.50;;
70981;SDS011;58640;51.320;9.456;2022-07-12T10:03:42;0.30;;;0.30;;
70981;SDS011;58640;51.320;9.456;2022-07-12T10:06:08;3.13;;;0.35;;
70981;SDS011;58640;51.320;9.456;2022-07-12T10:08:36;0.40;;;0.40;;
70981;SDS011;58640;51.320;9.456;2022-07-12T10:11:02;0.35;;;0.30;;
70981;SDS011;58640;51.320;9.456;2022-07-12T10:13:27;0.38;;;0.28;;
70981;SDS011;58640;51.320;9.456;2022-07-12T10:15:59;0.47;;;0.47;;
70981;SDS011;58640;51.320;9.456;2022-07-12T10:18:29;0.63;;;0.43;;
70981;SDS011;58640;51.320;9.456;2022-07-12T10:20:55;0.40;;;0.40;;
70981;SDS011;58640;51.320;9.456;2022-07-12T10:23:36;1.90;;;0.30;;
70981;SDS011;58640;51.320;9.456;2022-07-12T10:26:24;2.65;;;0.40;;
70981;SDS011;58640;51.320;9.456;2022-07-12T10:29:05;0.60;;;0.30;;
70981;SDS011;58640;51.320;9.456;2022-07-12T10:31:36;0.30;;;0.30;;
70981;SDS011;58640;51.320;9.456;2022-07-12T10:34:13;0.30;;;0.30;;
70981;SDS011;58640;51.320;9.456;2022-07-12T10:39:20;0.73;;;0.35;;
70981;SDS011;58640;51.320;9.456;2022-07-12T10:44:36;2.08;;;0.47;;
70981;SDS011;58640;51.320;9.456;2022-07-12T10:47:04;0.30;;;0.30;;
70981;SDS011;58640;51.320;9.456;2022-07-12T10:49:32;0.85;;;0.28;;
70981;SDS011;58640;51.320;9.456;2022-07-12T10:54:36;1.48;;;0.40;;
70981;SDS011;58640;51.320;9.456;2022-07-12T10:57:06;0.30;;;0.30;;
70981;SDS011;58640;51.320;9.456;2022-07-12T10:59:33;0.28;;;0.28;;
70981;SDS011;58640;51.320;9.456;2022-07-12T11:02:01;1.33;;;0.40;;
70981;SDS011;58640;51.320;9.456;2022-07-12T11:04:27;1.35;;;0.55;;
70981;SDS011;58640;51.320;9.456;2022-07-12T11:06:53;0.93;;;0.30;;
70981;SDS011;58640;51.320;9.456;2022-07-12T11:09:23;1.35;;;0.50;;
70981;SDS011;58640;51.320;9.456;2022-07-12T11:11:50;1.52;;;0.77;;
70981;SDS011;58640;51.320;9.456;2022-07-12T11:14:23;1.67;;;0.30;;
70981;SDS011;58640;51.320;9.456;2022-07-12T11:16:54;0.95;;;0.65;;
70981;SDS011;58640;51.320;9.456;2022-07-12T11:19:22;0.20;;;0.20;;
70981;SDS011;58640;51.320;9.456;2022-07-12T11:21:49;0.43;;;0.30;;
70981;SDS011;58640;51.320;9.456;2022-07-12T11:24:23;0.20;;;0.20;;
70981;SDS011;58640;51.320;9.456;2022-07-12T11:26:48;1.00;;;0.30;;
70981;SDS011;58640;51.320;9.456;2022-07-12T11:29:13;0.73;;;0.47;;
70981;SDS011;58640;51.320;9.456;2022-07-12T11:31:39;0.30;;;0.30;;
70981;SDS011;58640;51.320;9.456;2022-07-12T11:34:04;0.40;;;0.40;;
70981;SDS011;58640;51.320;9.456;2022-07-12T11:36:30;1.98;;;0.40;;
70981;SDS011;58640;51.320;9.456;2022-07-12T11:38:57;0.57;;;0.30;;
70981;SDS011;58640;51.320;9.456;2022-07-12T11:41:22;0.65;;;0.30;;
70981;SDS011;58640;51.320;9.456;2022-07-12T11:43:49;1.73;;;0.22;;
70981;SDS011;58640;51.320;9.456;2022-07-12T11:46:15;0.75;;;0.30;;
70981;SDS011;58640;51.320;9.456;2022-07-12T11:48:41;1.33;;;0.38;;
70981;SDS011;58640;51.320;9.456;2022-07-12T11:51:08;0.28;;;0.17;;
70981;SDS011;58640;51.320;9.456;2022-07-12T11:53:35;0.47;;;0.30;;
70981;SDS011;58640;51.320;9.456;2022-07-12T11:56:02;0.95;;;0.40;;
70981;SDS011;58640;51.320;9.456;2022-07-12T11:58:30;4.15;;;0.30;;
70981;SDS011;58640;51.320;9.456;2022-07-12T12:00:57;2.05;;;0.35;;
70981;SDS011;58640;51.320;9.456;2022-07-12T12:03:23;1.13;;;0.30;;
70981;SDS011;58640;51.320;9.456;2022-07-12T12:05:49;0.95;;;0.38;;
70981;SDS011;58640;51.320;9.456;2022-07-12T12:08:19;5.28;;;0.43;;
70981;SDS011;58640;51.320;9.456;2022-07-12T12:10:57;1.95;;;1.33;;
70981;SDS011;58640;51.320;9.456;2022-07-12T12:13:24;1.45;;;0.30;;
70981;SDS011;58640;51.320;9.456;2022-07-12T12:15:55;0.52;;;0.20;;
70981;SDS011;58640;51.320;9.456;2022-07-12T12:18:28;0.20;;;0.20;;
70981;SDS011;58640;51.320;9.456;2022-07-12T12:21:03;1.20;;;0.30;;
70981;SDS011;58640;51.320;9.456;2022-07-12T12:23:31;0.30;;;0.30;;
70981;SDS011;58640;51.320;9.456;2022-07-12T12:26:09;0.30;;;0.30;;
70981;SDS011;58640;51.320;9.456;2022-07-12T12:28:48;0.57;;;0.30;;
70981;SDS011;58640;51.320;9.456;2022-07-12T12:31:15;0.57;;;0.30;;
70981;SDS011;58640;51.320;9.456;2022-07-12T12:33:43;0.28;;;0.20;;
70981;SDS011;58640;51.320;9.456;2022-07-12T12:36:13;0.20;;;0.20;;
70981;SDS011;58640;51.320;9.456;2022-07-12T12:39:00;2.55;;;0.40;;
70981;SDS011;58640;51.320;9.456;2022-07-12T12:41:27;0.30;;;0.30;;
70981;SDS011;58640;51.320;9.456;2022-07-12T12:44:00;0.22;;;0.22;;
70981;SDS011;58640;51.320;9.456;2022-07-12T12:49:15;3.03;;;0.30;;
70981;SDS011;58640;51.320;9.456;2022-07-12T12:51:53;2.53;;;0.30;;
70981;SDS011;58640;51.320;9.456;2022-07-12T12:54:30;0.30;;;0.30;;
70981;SDS011;58640;51.320;9.456;2022-07-12T12:57:03;4.03;;;0.50;;
70981;SDS011;58640;51.320;9.456;2022-07-12T12:59:29;1.27;;;0.30;;
70981;SDS011;58640;51.320;9.456;2022-07-12T13:01:55;1.83;;;0.20;;
70981;SDS011;58640;51.320;9.456;2022-07-12T13:04:20;0.30;;;0.30;;
70981;SDS011;58640;51.320;9.456;2022-07-12T13:06:45;0.30;;;0.30;;
70981;SDS011;58640;51.320;9.456;2022-07-12T13:09:11;1.25;;;0.20;;
70981;SDS011;58640;51.320;9.456;2022-07-12T13:11:36;0.20;;;0.20;;
70981;SDS011;58640;51.320;9.456;2022-07-12T13:14:02;0.85;;;0.40;;
70981;SDS011;58640;51.320;9.456;2022-07-12T13:16:27;0.40;;;0.20;;
70981;SDS011;58640;51.320;9.456;2022-07-12T13:18:52;0.25;;;0.22;;
70981;SDS011;58640;51.320;9.456;2022-07-12T13:21:18;0.30;;;0.25;;
70981;SDS011;58640;51.320;9.456;2022-07-12T13:23:43;0.30;;;0.30;;
70981;SDS011;58640;51.320;9.456;2022-07-12T13:26:09;0.63;;;0.30;;
70981;SDS011;58640;51.320;9.456;2022-07-12T13:28:35;0.75;;;0.40;;
70981;SDS011;58640;51.320;9.456;2022-07-12T13:31:00;2.10;;;0.50;;
70981;SDS011;58640;51.320;9.456;2022-07-12T13:33:26;0.40;;;0.30;;
70981;SDS011;58640;51.320;9.456;2022-07-12T13:35:51;0.30;;;0.30;;
70981;SDS011;58640;51.320;9.456;2022-07-12T13:38:16;1.50;;;0.75;;
70981;SDS011;58640;51.320;9.456;2022-07-12T13:40:42;0.40;;;0.40;;
70981;SDS011;58640;51.320;9.456;2022-07-12T13:43:07;1.55;;;0.20;;
70981;SDS011;58640;51.320;9.456;2022-07-12T13:45:33;0.30;;;0.30;;
70981;SDS011;58640;51.320;9.456;2022-07-12T13:47:59;0.55;;;0.50;;
70981;SDS011;58640;51.320;9.456;2022-07-12T13:50:26;0.50;;;0.38;;
70981;SDS011;58640;51.320;9.456;2022-07-12T13:52:51;0.20;;;0.20;;
70981;SDS011;58640;51.320;9.456;2022-07-12T13:55:17;0.38;;;0.38;;
70981;SDS011;58640;51.320;9.456;2022-07-12T13:57:43;0.20;;;0.20;;
70981;SDS011;58640;51.320;9.456;2022-07-12T14:00:09;0.60;;;0.50;;
70981;SDS011;58640;51.320;9.456;2022-07-12T14:02:37;0.68;;;0.30;;
70981;SDS011;58640;51.320;9.456;2022-07-12T14:05:04;2.50;;;0.38;;
70981;SDS011;58640;51.320;9.456;2022-07-12T14:07:31;3.63;;;0.25;;
70981;SDS011;58640;51.320;9.456;2022-07-12T14:09:56;0.30;;;0.30;;
70981;SDS011;58640;51.320;9.456;2022-07-12T14:12:22;1.00;;;0.30;;
70981;SDS011;58640;51.320;9.456;2022-07-12T14:14:47;0.55;;;0.20;;
70981;SDS011;58640;51.320;9.456;2022-07-12T14:17:31;0.95;;;0.30;;
70981;SDS011;58640;51.320;9.456;2022-07-12T14:19:58;0.22;;;0.20;;
70981;SDS011;58640;51.320;9.456;2022-07-12T14:22:24;4.50;;;0.32;;
70981;SDS011;58640;51.320;9.456;2022-07-12T14:24:49;1.50;;;0.30;;
70981;SDS011;58640;51.320;9.456;2022-07-12T14:27:15;0.38;;;0.38;;
70981;SDS011;58640;51.320;9.456;2022-07-12T14:29:40;0.95;;;0.30;;
70981;SDS011;58640;51.320;9.456;2022-07-12T14:32:05;2.63;;;0.20;;
70981;SDS011;58640;51.320;9.456;2022-07-12T14:34:31;0.10;;;0.10;;
70981;SDS011;58640;51.320;9.456;2022-07-12T14:36:56;5.15;;;0.20;;
70981;SDS011;58640;51.320;9.456;2022-07-12T14:39:21;0.90;;;0.30;;
70981;SDS011;58640;51.320;9.456;2022-07-12T14:41:47;0.22;;;0.20;;
70981;SDS011;58640;51.320;9.456;2022-07-12T14:44:12;0.45;;;0.20;;
70981;SDS011;58640;51.320;9.456;2022-07-12T14:46:38;2.95;;;0.22;;
70981;SDS011;58640;51.320;9.456;2022-07-12T14:49:03;1.90;;;0.30;;
70981;SDS011;58640;51.320;9.456;2022-07-12T14:51:29;3.67;;;0.40;;
70981;SDS011;58640;51.320;9.456;2022-07-12T14:53:55;0.50;;;0.30;;
70981;SDS011;58640;51.320;9.456;2022-07-12T14:56:21;0.20;;;0.20;;
70981;SDS011;58640;51.320;9.456;2022-07-12T14:58:46;0.38;;;0.20;;
70981;SDS011;58640;51.320;9.456;2022-07-12T15:01:11;0.43;;;0.30;;